sensor_id;sensor_type;location;lat;lon;timestamp;P1;durP1;ratioP1;P2;durP2;ratioP2
18090;SDS011;9172;49.948;9.208;2022-09-29T00:01:15;3.10;;;1.57;;
18090;SDS011;9172;49.948;9.208;2022-09-29T00:03:44;10.00;;;1.60;;
18090;SDS011;9172;49.948;9.208;2022-09-29T00:06:13;2.03;;;1.40;;
18090;SDS011;9172;49.948;9.208;2022-09-29T00:08:44;1.83;;;1.23;;
18090;SDS011;9172;49.948;9.208;2022-09-29T00:11:14;2.87;;;1.33;;
18090;SDS011;9172;49.948;9.208;2022-09-29T00:13:44;1.83;;;1.33;;
18090;SDS011;9172;49.948;9.208;2022-09-29T00:16:14;4.10;;;1.53;;
18090;SDS011;9172;49.948;9.208;2022-09-29T00:18:43;5.77;;;1.40;;
18090;SDS011;9172;49.948;9.208;2022-09-29T00:21:12;3.33;;;1.30;;
18090;SDS011;9172;49.948;9.208;2022-09-29T00:23:45;1.57;;;1.10;;
18090;SDS011;9172;49.948;9.208;2022-09-29T00:26:16;2.17;;;1.33;;
18090;SDS011;9172;49.948;9.208;2022-09-29T00:28:47;4.37;;;1.50;;
18090;SDS011;9172;49.948;9.208;2022-09-29T00:31:18;1.40;;;1.23;;
18090;SDS011;9172;49.948;9.208;2022-09-29T00:33:47;2.33;;;1.30;;
18090;SDS011;9172;49.948;9.208;2022-09-29T00:36:17;2.80;;;1.33;;
18090;SDS011;9172;49.948;9.208;2022-09-29T00:38:47;3.43;;;1.23;;
18090;SDS011;9172;49.948;9.208;2022-09-29T00:41:18;3.10;;;2.30;;
18090;SDS011;9172;49.948;9.208;2022-09-29T00:43:51;1.70;;;1.20;;
18090;SDS011;9172;49.948;9.208;2022-09-29T00:46:27;3.03;;;1.20;;
18090;SDS011;9172;49.948;9.208;2022-09-29T00:49:12;1.87;;;1.10;;
18090;SDS011;9172;49.948;9.208;2022-09-29T00:51:43;4.43;;;1.47;;
18090;SDS011;9172;49.948;9.208;2022-09-29T00:54:13;1.63;;;1.37;;
18090;SDS011;9172;49.948;9.208;2022-09-29T00:56:42;6.07;;;1.40;;
18090;SDS011;9172;49.948;9.208;2022-09-29T00:59:13;6.23;;;1.57;;
18090;SDS011;9172;49.948;9.208;2022-09-29T01:01:44;2.97;;;1.57;;
18090;SDS011;9172;49.948;9.208;2022-09-29T01:04:15;3.63;;;1.53;;
18090;SDS011;9172;49.948;9.208;2022-09-29T01:06:46;3.73;;;1.67;;
18090;SDS011;9172;49.948;9.208;2022-09-29T01:09:18;3.23;;;1.93;;
18090;SDS011;9172;49.948;9.208;2022-09-29T01:11:49;3.57;;;1.90;;
18090;SDS011;9172;49.948;9.208;2022-09-29T01:14:21;3.90;;;1.60;;
18090;SDS011;9172;49.948;9.208;2022-09-29T01:16:50;4.43;;;1.70;;
18090;SDS011;9172;49.948;9.208;2022-09-29T01:19:20;2.37;;;1.47;;
18090;SDS011;9172;49.948;9.208;2022-09-29T01:22:00;4.23;;;1.30;;
18090;SDS011;9172;49.948;9.208;2022-09-29T01:24:35;4.13;;;1.67;;
18090;SDS011;9172;49.948;9.208;2022-09-29T01:27:21;7.80;;;1.57;;
18090;SDS011;9172;49.948;9.208;2022-09-29T01:30:03;1.90;;;1.30;;
18090;SDS011;9172;49.948;9.208;2022-09-29T01:32:39;4.73;;;1.30;;
18090;SDS011;9172;49.948;9.208;2022-09-29T01:35:32;3.70;;;1.53;;
18090;SDS011;9172;49.948;9.208;2022-09-29T01:38:26;2.23;;;1.33;;
18090;SDS011;9172;49.948;9.208;2022-09-29T01:41:00;2.23;;;1.37;;
18090;SDS011;9172;49.948;9.208;2022-09-29T01:43:39;9.27;;;1.73;;
18090;SDS011;9172;49.948;9.208;2022-09-29T01:46:12;5.60;;;1.47;;
18090;SDS011;9172;49.948;9.208;2022-09-29T01:48:43;3.57;;;1.50;;
18090;SDS011;9172;49.948;9.208;2022-09-29T01:51:15;2.07;;;1.27;;
18090;SDS011;9172;49.948;9.208;2022-09-29T01:53:47;1.43;;;1.30;;
18090;SDS011;9172;49.948;9.208;2022-09-29T01:56:20;1.93;;;1.50;;
18090;SDS011;9172;49.948;9.208;2022-09-29T01:58:51;8.70;;;1.73;;
18090;SDS011;9172;49.948;9.208;2022-09-29T02:01:24;1.63;;;1.37;;
18090;SDS011;9172;49.948;9.208;2022-09-29T02:03:55;3.97;;;1.57;;
18090;SDS011;9172;49.948;9.208;2022-09-29T02:06:26;1.93;;;1.47;;
18090;SDS011;9172;49.948;9.208;2022-09-29T02:08:58;3.00;;;1.40;;
18090;SDS011;9172;49.948;9.208;2022-09-29T02:11:29;3.87;;;1.40;;
18090;SDS011;9172;49.948;9.208;2022-09-29T02:14:02;2.70;;;1.40;;
18090;SDS011;9172;49.948;9.208;2022-09-29T02:16:35;1.53;;;1.40;;
18090;SDS011;9172;49.948;9.208;2022-09-29T02:19:06;2.23;;;1.53;;
18090;SDS011;9172;49.948;9.208;2022-09-29T02:21:37;12.43;;;1.87;;
18090;SDS011;9172;49.948;9.208;2022-09-29T02:24:06;2.63;;;1.37;;
18090;SDS011;9172;49.948;9.208;2022-09-29T02:26:35;5.10;;;1.80;;
18090;SDS011;9172;49.948;9.208;2022-09-29T02:29:04;2.70;;;1.20;;
18090;SDS011;9172;49.948;9.208;2022-09-29T02:31:34;4.17;;;1.43;;
18090;SDS011;9172;49.948;9.208;2022-09-29T02:34:04;1.80;;;1.57;;
18090;SDS011;9172;49.948;9.208;2022-09-29T02:36:38;3.03;;;1.80;;
18090;SDS011;9172;49.948;9.208;2022-09-29T02:39:19;3.23;;;1.30;;
18090;SDS011;9172;49.948;9.208;2022-09-29T02:41:50;5.03;;;1.50;;
18090;SDS011;9172;49.948;9.208;2022-09-29T02:44:35;2.63;;;1.47;;
18090;SDS011;9172;49.948;9.208;2022-09-29T02:47:18;3.73;;;1.60;;
18090;SDS011;9172;49.948;9.208;2022-09-29T02:50:12;2.83;;;1.40;;
18090;SDS011;9172;49.948;9.208;2022-09-29T02:52:51;2.13;;;1.63;;
18090;SDS011;9172;49.948;9.208;2022-09-29T02:55:24;3.10;;;1.80;;
18090;SDS011;9172;49.948;9.208;2022-09-29T02:57:56;2.40;;;1.60;;
18090;SDS011;9172;49.948;9.208;2022-09-29T03:00:28;3.97;;;1.93;;
18090;SDS011;9172;49.948;9.208;2022-09-29T03:02:57;2.63;;;1.67;;
18090;SDS011;9172;49.948;9.208;2022-09-29T03:05:25;3.37;;;1.80;;
18090;SDS011;9172;49.948;9.208;2022-09-29T03:07:55;2.00;;;1.63;;
18090;SDS011;9172;49.948;9.208;2022-09-29T03:10:24;4.33;;;2.10;;
18090;SDS011;9172;49.948;9.208;2022-09-29T03:12:52;2.80;;;2.10;;
18090;SDS011;9172;49.948;9.208;2022-09-29T03:15:21;3.37;;;1.80;;
18090;SDS011;9172;49.948;9.208;2022-09-29T03:17:49;4.67;;;2.30;;
18090;SDS011;9172;49.948;9.208;2022-09-29T03:20:21;2.30;;;1.80;;
18090;SDS011;9172;49.948;9.208;2022-09-29T03:22:54;4.20;;;2.00;;
18090;SDS011;9172;49.948;9.208;2022-09-29T03:25:23;4.13;;;1.93;;
18090;SDS011;9172;49.948;9.208;2022-09-29T03:27:53;5.10;;;1.97;;
18090;SDS011;9172;49.948;9.208;2022-09-29T03:30:22;3.37;;;1.80;;
18090;SDS011;9172;49.948;9.208;2022-09-29T03:32:52;4.73;;;1.87;;
18090;SDS011;9172;49.948;9.208;2022-09-29T03:35:20;4.67;;;1.97;;
18090;SDS011;9172;49.948;9.208;2022-09-29T03:37:49;5.67;;;2.10;;
18090;SDS011;9172;49.948;9.208;2022-09-29T03:40:18;2.80;;;2.13;;
18090;SDS011;9172;49.948;9.208;2022-09-29T03:42:47;4.87;;;2.23;;
18090;SDS011;9172;49.948;9.208;2022-09-29T03:45:17;2.40;;;1.70;;
18090;SDS011;9172;49.948;9.208;2022-09-29T03:47:46;4.37;;;2.40;;
18090;SDS011;9172;49.948;9.208;2022-09-29T03:50:14;3.33;;;2.00;;
18090;SDS011;9172;49.948;9.208;2022-09-29T03:52:43;8.37;;;2.27;;
18090;SDS011;9172;49.948;9.208;2022-09-29T03:55:11;4.43;;;2.10;;
18090;SDS011;9172;49.948;9.208;2022-09-29T03:57:40;6.60;;;2.53;;
18090;SDS011;9172;49.948;9.208;2022-09-29T04:00:10;6.33;;;3.33;;
18090;SDS011;9172;49.948;9.208;2022-09-29T04:02:41;4.63;;;2.60;;
18090;SDS011;9172;49.948;9.208;2022-09-29T04:05:09;3.47;;;2.20;;
18090;SDS011;9172;49.948;9.208;2022-09-29T04:07:39;3.10;;;2.20;;
18090;SDS011;9172;49.948;9.208;2022-09-29T04:10:08;7.23;;;2.53;;
18090;SDS011;9172;49.948;9.208;2022-09-29T04:12:36;6.73;;;2.60;;
18090;SDS011;9172;49.948;9.208;2022-09-29T04:15:07;7.37;;;2.87;;
18090;SDS011;9172;49.948;9.208;2022-09-29T04:17:37;9.57;;;3.50;;
18090;SDS011;9172;49.948;9.208;2022-09-29T04:20:07;3.73;;;2.50;;
18090;SDS011;9172;49.948;9.208;2022-09-29T04:22:36;6.07;;;2.83;;
18090;SDS011;9172;49.948;9.208;2022-09-29T04:25:06;5.77;;;3.03;;
18090;SDS011;9172;49.948;9.208;2022-09-29T04:27:35;7.27;;;3.20;;
18090;SDS011;9172;49.948;9.208;2022-09-29T04:30:05;5.57;;;2.80;;
18090;SDS011;9172;49.948;9.208;2022-09-29T04:32:35;5.70;;;2.33;;
18090;SDS011;9172;49.948;9.208;2022-09-29T04:35:05;2.87;;;2.27;;
18090;SDS011;9172;49.948;9.208;2022-09-29T04:37:35;8.20;;;3.27;;
18090;SDS011;9172;49.948;9.208;2022-09-29T04:40:05;9.27;;;3.67;;
18090;SDS011;9172;49.948;9.208;2022-09-29T04:42:34;3.53;;;2.50;;
18090;SDS011;9172;49.948;9.208;2022-09-29T04:47:39;3.90;;;2.37;;
18090;SDS011;9172;49.948;9.208;2022-09-29T04:50:08;5.77;;;2.57;;
18090;SDS011;9172;49.948;9.208;2022-09-29T04:52:37;4.70;;;2.00;;
18090;SDS011;9172;49.948;9.208;2022-09-29T04:55:09;4.30;;;2.00;;
18090;SDS011;9172;49.948;9.208;2022-09-29T04:57:40;10.83;;;2.77;;
18090;SDS011;9172;49.948;9.208;2022-09-29T05:00:10;2.93;;;1.90;;
18090;SDS011;9172;49.948;9.208;2022-09-29T05:02:40;5.13;;;2.40;;
18090;SDS011;9172;49.948;9.208;2022-09-29T05:05:09;3.80;;;2.13;;
18090;SDS011;9172;49.948;9.208;2022-09-29T05:07:38;5.93;;;2.13;;
18090;SDS011;9172;49.948;9.208;2022-09-29T05:10:08;3.77;;;2.07;;
18090;SDS011;9172;49.948;9.208;2022-09-29T05:12:36;3.03;;;2.20;;
18090;SDS011;9172;49.948;9.208;2022-09-29T05:15:06;4.50;;;2.10;;
18090;SDS011;9172;49.948;9.208;2022-09-29T05:17:36;4.37;;;2.20;;
18090;SDS011;9172;49.948;9.208;2022-09-29T05:20:05;3.10;;;2.20;;
18090;SDS011;9172;49.948;9.208;2022-09-29T05:22:34;6.30;;;2.40;;
18090;SDS011;9172;49.948;9.208;2022-09-29T05:25:03;4.20;;;2.70;;
18090;SDS011;9172;49.948;9.208;2022-09-29T05:27:40;7.27;;;2.50;;
18090;SDS011;9172;49.948;9.208;2022-09-29T05:30:10;6.30;;;2.33;;
18090;SDS011;9172;49.948;9.208;2022-09-29T05:32:38;6.93;;;2.77;;
18090;SDS011;9172;49.948;9.208;2022-09-29T05:35:09;6.33;;;2.40;;
18090;SDS011;9172;49.948;9.208;2022-09-29T05:37:38;4.97;;;2.80;;
18090;SDS011;9172;49.948;9.208;2022-09-29T05:40:07;3.30;;;2.60;;
18090;SDS011;9172;49.948;9.208;2022-09-29T05:42:36;4.30;;;2.37;;
18090;SDS011;9172;49.948;9.208;2022-09-29T05:45:07;8.77;;;2.50;;
18090;SDS011;9172;49.948;9.208;2022-09-29T05:47:40;4.83;;;2.37;;
18090;SDS011;9172;49.948;9.208;2022-09-29T05:50:09;3.63;;;2.57;;
18090;SDS011;9172;49.948;9.208;2022-09-29T05:52:39;3.70;;;2.33;;
18090;SDS011;9172;49.948;9.208;2022-09-29T05:55:08;2.60;;;2.00;;
18090;SDS011;9172;49.948;9.208;2022-09-29T05:57:37;4.13;;;2.53;;
18090;SDS011;9172;49.948;9.208;2022-09-29T06:00:08;4.77;;;2.60;;
18090;SDS011;9172;49.948;9.208;2022-09-29T06:02:37;4.33;;;2.33;;
18090;SDS011;9172;49.948;9.208;2022-09-29T06:05:06;4.30;;;2.53;;
18090;SDS011;9172;49.948;9.208;2022-09-29T06:07:35;4.43;;;2.30;;
18090;SDS011;9172;49.948;9.208;2022-09-29T06:10:04;6.63;;;2.60;;
18090;SDS011;9172;49.948;9.208;2022-09-29T06:12:34;4.13;;;2.67;;
18090;SDS011;9172;49.948;9.208;2022-09-29T06:15:03;6.13;;;2.87;;
18090;SDS011;9172;49.948;9.208;2022-09-29T06:17:33;10.73;;;3.40;;
18090;SDS011;9172;49.948;9.208;2022-09-29T06:20:02;10.07;;;3.43;;
18090;SDS011;9172;49.948;9.208;2022-09-29T06:22:32;9.97;;;3.73;;
18090;SDS011;9172;49.948;9.208;2022-09-29T06:25:01;6.03;;;3.30;;
18090;SDS011;9172;49.948;9.208;2022-09-29T06:27:31;8.07;;;3.50;;
18090;SDS011;9172;49.948;9.208;2022-09-29T06:30:00;5.77;;;2.50;;
18090;SDS011;9172;49.948;9.208;2022-09-29T06:32:29;6.30;;;3.37;;
18090;SDS011;9172;49.948;9.208;2022-09-29T06:34:59;5.40;;;2.70;;
18090;SDS011;9172;49.948;9.208;2022-09-29T06:37:45;3.57;;;2.43;;
18090;SDS011;9172;49.948;9.208;2022-09-29T06:40:14;4.30;;;2.80;;
18090;SDS011;9172;49.948;9.208;2022-09-29T06:42:45;5.67;;;2.70;;
18090;SDS011;9172;49.948;9.208;2022-09-29T06:45:14;10.57;;;3.40;;
18090;SDS011;9172;49.948;9.208;2022-09-29T06:47:44;4.60;;;2.60;;
18090;SDS011;9172;49.948;9.208;2022-09-29T06:50:13;4.33;;;2.83;;
18090;SDS011;9172;49.948;9.208;2022-09-29T06:52:42;5.30;;;2.73;;
18090;SDS011;9172;49.948;9.208;2022-09-29T06:55:11;10.43;;;3.20;;
18090;SDS011;9172;49.948;9.208;2022-09-29T06:57:40;4.40;;;2.50;;
18090;SDS011;9172;49.948;9.208;2022-09-29T07:00:11;6.17;;;2.77;;
18090;SDS011;9172;49.948;9.208;2022-09-29T07:02:40;7.37;;;3.30;;
18090;SDS011;9172;49.948;9.208;2022-09-29T07:05:11;8.00;;;3.03;;
18090;SDS011;9172;49.948;9.208;2022-09-29T07:07:42;5.13;;;2.83;;
18090;SDS011;9172;49.948;9.208;2022-09-29T07:10:10;8.50;;;3.33;;
18090;SDS011;9172;49.948;9.208;2022-09-29T07:12:40;6.33;;;2.63;;
18090;SDS011;9172;49.948;9.208;2022-09-29T07:15:10;5.53;;;2.90;;
18090;SDS011;9172;49.948;9.208;2022-09-29T07:17:39;4.77;;;3.00;;
18090;SDS011;9172;49.948;9.208;2022-09-29T07:20:08;4.47;;;2.67;;
18090;SDS011;9172;49.948;9.208;2022-09-29T07:22:36;5.03;;;2.60;;
18090;SDS011;9172;49.948;9.208;2022-09-29T07:25:06;5.17;;;2.90;;
18090;SDS011;9172;49.948;9.208;2022-09-29T07:27:35;8.60;;;3.00;;
18090;SDS011;9172;49.948;9.208;2022-09-29T07:30:07;3.90;;;2.43;;
18090;SDS011;9172;49.948;9.208;2022-09-29T07:32:38;6.37;;;2.77;;
18090;SDS011;9172;49.948;9.208;2022-09-29T07:35:07;9.93;;;3.50;;
18090;SDS011;9172;49.948;9.208;2022-09-29T07:37:37;5.73;;;2.70;;
18090;SDS011;9172;49.948;9.208;2022-09-29T07:40:06;6.13;;;3.73;;
18090;SDS011;9172;49.948;9.208;2022-09-29T07:42:36;6.87;;;3.03;;
18090;SDS011;9172;49.948;9.208;2022-09-29T07:45:07;6.60;;;3.40;;
18090;SDS011;9172;49.948;9.208;2022-09-29T07:47:36;7.73;;;2.90;;
18090;SDS011;9172;49.948;9.208;2022-09-29T07:50:08;6.70;;;2.70;;
18090;SDS011;9172;49.948;9.208;2022-09-29T07:52:37;7.07;;;2.77;;
18090;SDS011;9172;49.948;9.208;2022-09-29T07:55:06;4.57;;;2.93;;
18090;SDS011;9172;49.948;9.208;2022-09-29T07:57:36;5.97;;;3.27;;
18090;SDS011;9172;49.948;9.208;2022-09-29T08:00:06;5.07;;;2.70;;
18090;SDS011;9172;49.948;9.208;2022-09-29T08:02:36;4.40;;;2.43;;
18090;SDS011;9172;49.948;9.208;2022-09-29T08:05:06;4.50;;;2.33;;
18090;SDS011;9172;49.948;9.208;2022-09-29T08:07:35;5.77;;;2.67;;
18090;SDS011;9172;49.948;9.208;2022-09-29T08:10:07;9.00;;;2.97;;
18090;SDS011;9172;49.948;9.208;2022-09-29T08:12:37;7.00;;;2.77;;
18090;SDS011;9172;49.948;9.208;2022-09-29T08:15:06;9.90;;;3.20;;
18090;SDS011;9172;49.948;9.208;2022-09-29T08:17:36;7.23;;;2.90;;
18090;SDS011;9172;49.948;9.208;2022-09-29T08:20:05;5.37;;;2.70;;
18090;SDS011;9172;49.948;9.208;2022-09-29T08:22:34;4.47;;;2.63;;
18090;SDS011;9172;49.948;9.208;2022-09-29T08:25:03;3.13;;;2.23;;
18090;SDS011;9172;49.948;9.208;2022-09-29T08:27:32;5.17;;;2.37;;
18090;SDS011;9172;49.948;9.208;2022-09-29T08:30:02;6.07;;;2.20;;
18090;SDS011;9172;49.948;9.208;2022-09-29T08:32:31;6.83;;;3.13;;
18090;SDS011;9172;49.948;9.208;2022-09-29T08:35:00;4.73;;;3.10;;
18090;SDS011;9172;49.948;9.208;2022-09-29T08:37:29;9.87;;;6.40;;
18090;SDS011;9172;49.948;9.208;2022-09-29T08:39:57;6.60;;;4.43;;
18090;SDS011;9172;49.948;9.208;2022-09-29T08:42:28;9.80;;;3.70;;
18090;SDS011;9172;49.948;9.208;2022-09-29T08:45:10;7.13;;;3.23;;
18090;SDS011;9172;49.948;9.208;2022-09-29T08:47:41;6.87;;;3.43;;
18090;SDS011;9172;49.948;9.208;2022-09-29T08:50:13;10.80;;;3.53;;
18090;SDS011;9172;49.948;9.208;2022-09-29T08:52:46;7.63;;;4.07;;
18090;SDS011;9172;49.948;9.208;2022-09-29T08:55:24;11.57;;;3.67;;
18090;SDS011;9172;49.948;9.208;2022-09-29T08:57:56;6.37;;;3.70;;
18090;SDS011;9172;49.948;9.208;2022-09-29T09:00:29;7.80;;;4.07;;
18090;SDS011;9172;49.948;9.208;2022-09-29T09:06:12;7.70;;;3.77;;
18090;SDS011;9172;49.948;9.208;2022-09-29T09:08:49;7.30;;;3.20;;
18090;SDS011;9172;49.948;9.208;2022-09-29T09:11:27;8.13;;;3.73;;
18090;SDS011;9172;49.948;9.208;2022-09-29T09:14:01;8.73;;;4.53;;
18090;SDS011;9172;49.948;9.208;2022-09-29T09:16:34;7.70;;;3.80;;
18090;SDS011;9172;49.948;9.208;2022-09-29T09:19:12;6.37;;;3.57;;
18090;SDS011;9172;49.948;9.208;2022-09-29T09:21:51;5.77;;;3.57;;
18090;SDS011;9172;49.948;9.208;2022-09-29T09:24:26;6.43;;;3.43;;
18090;SDS011;9172;49.948;9.208;2022-09-29T09:26:56;12.73;;;3.20;;
18090;SDS011;9172;49.948;9.208;2022-09-29T09:29:26;4.47;;;3.20;;
18090;SDS011;9172;49.948;9.208;2022-09-29T09:31:58;7.70;;;3.10;;
18090;SDS011;9172;49.948;9.208;2022-09-29T09:34:31;7.37;;;2.90;;
18090;SDS011;9172;49.948;9.208;2022-09-29T09:37:05;4.37;;;3.00;;
18090;SDS011;9172;49.948;9.208;2022-09-29T09:39:35;5.17;;;2.73;;
18090;SDS011;9172;49.948;9.208;2022-09-29T09:42:06;5.57;;;2.93;;
18090;SDS011;9172;49.948;9.208;2022-09-29T09:44:40;7.13;;;2.63;;
18090;SDS011;9172;49.948;9.208;2022-09-29T09:47:19;8.07;;;3.23;;
18090;SDS011;9172;49.948;9.208;2022-09-29T09:49:49;4.47;;;3.27;;
18090;SDS011;9172;49.948;9.208;2022-09-29T09:52:23;5.67;;;2.87;;
18090;SDS011;9172;49.948;9.208;2022-09-29T09:54:53;5.10;;;2.40;;
18090;SDS011;9172;49.948;9.208;2022-09-29T09:57:38;7.03;;;2.60;;
18090;SDS011;9172;49.948;9.208;2022-09-29T10:00:21;4.27;;;2.80;;
18090;SDS011;9172;49.948;9.208;2022-09-29T10:02:53;6.07;;;2.67;;
18090;SDS011;9172;49.948;9.208;2022-09-29T10:05:25;6.50;;;2.67;;
18090;SDS011;9172;49.948;9.208;2022-09-29T10:07:55;4.03;;;2.70;;
18090;SDS011;9172;49.948;9.208;2022-09-29T10:10:25;6.20;;;2.53;;
18090;SDS011;9172;49.948;9.208;2022-09-29T10:12:55;6.23;;;2.43;;
18090;SDS011;9172;49.948;9.208;2022-09-29T10:15:28;4.77;;;2.53;;
18090;SDS011;9172;49.948;9.208;2022-09-29T10:18:02;3.30;;;2.20;;
18090;SDS011;9172;49.948;9.208;2022-09-29T10:20:34;5.10;;;2.33;;
18090;SDS011;9172;49.948;9.208;2022-09-29T10:25:53;4.43;;;2.50;;
18090;SDS011;9172;49.948;9.208;2022-09-29T10:28:24;7.03;;;2.33;;
18090;SDS011;9172;49.948;9.208;2022-09-29T10:30:57;5.13;;;2.07;;
18090;SDS011;9172;49.948;9.208;2022-09-29T10:33:25;4.97;;;2.10;;
18090;SDS011;9172;49.948;9.208;2022-09-29T10:36:07;3.97;;;2.20;;
18090;SDS011;9172;49.948;9.208;2022-09-29T10:38:36;4.80;;;2.10;;
18090;SDS011;9172;49.948;9.208;2022-09-29T10:41:05;3.13;;;1.73;;
18090;SDS011;9172;49.948;9.208;2022-09-29T10:43:35;6.47;;;1.90;;
18090;SDS011;9172;49.948;9.208;2022-09-29T10:46:29;2.67;;;1.70;;
18090;SDS011;9172;49.948;9.208;2022-09-29T10:48:42;4.70;;;2.00;;
18090;SDS011;9172;49.948;9.208;2022-09-29T10:51:11;4.73;;;1.83;;
18090;SDS011;9172;49.948;9.208;2022-09-29T10:53:45;5.00;;;2.10;;
18090;SDS011;9172;49.948;9.208;2022-09-29T10:56:15;3.70;;;1.50;;
18090;SDS011;9172;49.948;9.208;2022-09-29T10:58:51;3.67;;;1.70;;
18090;SDS011;9172;49.948;9.208;2022-09-29T11:01:23;4.57;;;2.00;;
18090;SDS011;9172;49.948;9.208;2022-09-29T11:03:54;3.10;;;1.57;;
18090;SDS011;9172;49.948;9.208;2022-09-29T11:06:27;4.80;;;1.70;;
18090;SDS011;9172;49.948;9.208;2022-09-29T11:08:58;3.37;;;1.63;;
18090;SDS011;9172;49.948;9.208;2022-09-29T11:11:29;4.87;;;1.87;;
18090;SDS011;9172;49.948;9.208;2022-09-29T11:14:00;4.83;;;1.50;;
18090;SDS011;9172;49.948;9.208;2022-09-29T11:16:30;3.87;;;1.50;;
18090;SDS011;9172;49.948;9.208;2022-09-29T11:19:04;3.87;;;1.93;;
18090;SDS011;9172;49.948;9.208;2022-09-29T11:24:43;3.13;;;1.57;;
18090;SDS011;9172;49.948;9.208;2022-09-29T11:27:24;3.33;;;1.50;;
18090;SDS011;9172;49.948;9.208;2022-09-29T11:29:57;5.87;;;1.70;;
18090;SDS011;9172;49.948;9.208;2022-09-29T11:32:33;4.97;;;1.63;;
18090;SDS011;9172;49.948;9.208;2022-09-29T11:35:14;2.30;;;1.40;;
18090;SDS011;9172;49.948;9.208;2022-09-29T11:37:56;2.90;;;1.00;;
18090;SDS011;9172;49.948;9.208;2022-09-29T11:40:35;5.17;;;1.30;;
18090;SDS011;9172;49.948;9.208;2022-09-29T11:43:10;3.67;;;1.63;;
18090;SDS011;9172;49.948;9.208;2022-09-29T11:45:57;3.20;;;1.27;;
18090;SDS011;9172;49.948;9.208;2022-09-29T11:48:32;4.23;;;1.40;;
18090;SDS011;9172;49.948;9.208;2022-09-29T11:51:12;8.53;;;1.53;;
18090;SDS011;9172;49.948;9.208;2022-09-29T11:53:47;3.87;;;1.23;;
18090;SDS011;9172;49.948;9.208;2022-09-29T11:56:27;2.30;;;1.43;;
18090;SDS011;9172;49.948;9.208;2022-09-29T11:59:03;4.00;;;1.90;;
18090;SDS011;9172;49.948;9.208;2022-09-29T12:01:43;2.67;;;1.57;;
18090;SDS011;9172;49.948;9.208;2022-09-29T12:04:18;5.47;;;2.37;;
18090;SDS011;9172;49.948;9.208;2022-09-29T12:06:54;5.87;;;1.90;;
18090;SDS011;9172;49.948;9.208;2022-09-29T12:09:37;6.13;;;1.80;;
18090;SDS011;9172;49.948;9.208;2022-09-29T12:12:29;3.90;;;1.50;;
18090;SDS011;9172;49.948;9.208;2022-09-29T12:15:04;5.27;;;1.37;;
18090;SDS011;9172;49.948;9.208;2022-09-29T12:17:37;6.00;;;1.67;;
18090;SDS011;9172;49.948;9.208;2022-09-29T12:20:13;3.00;;;1.77;;
18090;SDS011;9172;49.948;9.208;2022-09-29T12:22:46;2.33;;;1.40;;
18090;SDS011;9172;49.948;9.208;2022-09-29T12:25:17;3.00;;;1.50;;
18090;SDS011;9172;49.948;9.208;2022-09-29T12:27:50;2.83;;;1.63;;
18090;SDS011;9172;49.948;9.208;2022-09-29T12:30:23;7.60;;;2.00;;
18090;SDS011;9172;49.948;9.208;2022-09-29T12:32:56;3.80;;;1.70;;
18090;SDS011;9172;49.948;9.208;2022-09-29T12:35:29;4.83;;;1.70;;
18090;SDS011;9172;49.948;9.208;2022-09-29T12:38:02;3.90;;;1.50;;
18090;SDS011;9172;49.948;9.208;2022-09-29T12:40:36;5.27;;;1.70;;
18090;SDS011;9172;49.948;9.208;2022-09-29T12:43:11;6.13;;;1.93;;
18090;SDS011;9172;49.948;9.208;2022-09-29T12:45:45;4.97;;;1.57;;
18090;SDS011;9172;49.948;9.208;2022-09-29T12:48:18;4.47;;;1.80;;
18090;SDS011;9172;49.948;9.208;2022-09-29T12:50:56;4.97;;;1.50;;
18090;SDS011;9172;49.948;9.208;2022-09-29T12:53:28;4.43;;;1.63;;
18090;SDS011;9172;49.948;9.208;2022-09-29T12:55:59;3.23;;;2.03;;
18090;SDS011;9172;49.948;9.208;2022-09-29T12:58:34;6.90;;;2.00;;
18090;SDS011;9172;49.948;9.208;2022-09-29T13:01:08;5.23;;;1.80;;
18090;SDS011;9172;49.948;9.208;2022-09-29T13:03:54;3.77;;;1.57;;
18090;SDS011;9172;49.948;9.208;2022-09-29T13:06:57;3.17;;;1.43;;
18090;SDS011;9172;49.948;9.208;2022-09-29T13:09:40;4.80;;;1.13;;
18090;SDS011;9172;49.948;9.208;2022-09-29T13:12:32;3.57;;;1.37;;
18090;SDS011;9172;49.948;9.208;2022-09-29T13:15:12;3.93;;;1.70;;
18090;SDS011;9172;49.948;9.208;2022-09-29T13:17:57;3.23;;;1.40;;
18090;SDS011;9172;49.948;9.208;2022-09-29T13:20:35;1.73;;;1.20;;
18090;SDS011;9172;49.948;9.208;2022-09-29T13:29:08;6.57;;;1.33;;
18090;SDS011;9172;49.948;9.208;2022-09-29T13:31:38;4.00;;;1.43;;
18090;SDS011;9172;49.948;9.208;2022-09-29T13:34:15;3.93;;;1.40;;
18090;SDS011;9172;49.948;9.208;2022-09-29T13:36:45;3.20;;;1.40;;
18090;SDS011;9172;49.948;9.208;2022-09-29T13:39:19;6.17;;;2.10;;
18090;SDS011;9172;49.948;9.208;2022-09-29T13:41:52;4.93;;;2.13;;
18090;SDS011;9172;49.948;9.208;2022-09-29T13:44:22;6.40;;;1.83;;
18090;SDS011;9172;49.948;9.208;2022-09-29T13:46:52;4.47;;;1.50;;
18090;SDS011;9172;49.948;9.208;2022-09-29T13:49:23;2.63;;;1.27;;
18090;SDS011;9172;49.948;9.208;2022-09-29T13:51:54;2.87;;;1.67;;
18090;SDS011;9172;49.948;9.208;2022-09-29T13:54:35;4.37;;;1.40;;
18090;SDS011;9172;49.948;9.208;2022-09-29T14:06:05;4.27;;;1.10;;
18090;SDS011;9172;49.948;9.208;2022-09-29T14:08:36;6.30;;;2.10;;
18090;SDS011;9172;49.948;9.208;2022-09-29T14:11:17;3.70;;;1.40;;
18090;SDS011;9172;49.948;9.208;2022-09-29T14:13:52;7.40;;;1.47;;
18090;SDS011;9172;49.948;9.208;2022-09-29T14:16:47;1.53;;;1.13;;
18090;SDS011;9172;49.948;9.208;2022-09-29T14:19:34;2.80;;;1.50;;
18090;SDS011;9172;49.948;9.208;2022-09-29T14:25:23;2.50;;;1.10;;
18090;SDS011;9172;49.948;9.208;2022-09-29T14:28:02;2.87;;;1.53;;
18090;SDS011;9172;49.948;9.208;2022-09-29T14:30:38;3.17;;;1.47;;
18090;SDS011;9172;49.948;9.208;2022-09-29T14:33:13;3.97;;;0.93;;
18090;SDS011;9172;49.948;9.208;2022-09-29T14:35:45;6.33;;;1.27;;
18090;SDS011;9172;49.948;9.208;2022-09-29T14:38:17;1.47;;;1.00;;
18090;SDS011;9172;49.948;9.208;2022-09-29T14:40:55;3.27;;;1.07;;
18090;SDS011;9172;49.948;9.208;2022-09-29T14:43:25;1.33;;;1.07;;
18090;SDS011;9172;49.948;9.208;2022-09-29T14:49:32;2.80;;;1.13;;
18090;SDS011;9172;49.948;9.208;2022-09-29T14:52:15;2.07;;;0.90;;
18090;SDS011;9172;49.948;9.208;2022-09-29T14:54:52;2.27;;;1.10;;
18090;SDS011;9172;49.948;9.208;2022-09-29T15:00:18;6.60;;;2.53;;
18090;SDS011;9172;49.948;9.208;2022-09-29T15:02:49;1.50;;;0.83;;
18090;SDS011;9172;49.948;9.208;2022-09-29T15:05:24;2.77;;;1.40;;
18090;SDS011;9172;49.948;9.208;2022-09-29T15:10:31;1.73;;;0.83;;
18090;SDS011;9172;49.948;9.208;2022-09-29T15:15:49;1.63;;;1.50;;
18090;SDS011;9172;49.948;9.208;2022-09-29T15:18:26;2.70;;;1.10;;
18090;SDS011;9172;49.948;9.208;2022-09-29T15:21:05;3.03;;;1.20;;
18090;SDS011;9172;49.948;9.208;2022-09-29T15:23:45;4.07;;;1.13;;
18090;SDS011;9172;49.948;9.208;2022-09-29T15:26:26;5.50;;;2.50;;
18090;SDS011;9172;49.948;9.208;2022-09-29T15:28:57;8.80;;;5.03;;
18090;SDS011;9172;49.948;9.208;2022-09-29T15:31:27;38.97;;;19.07;;
18090;SDS011;9172;49.948;9.208;2022-09-29T15:33:59;43.87;;;25.27;;
18090;SDS011;9172;49.948;9.208;2022-09-29T15:36:31;9.97;;;7.03;;
18090;SDS011;9172;49.948;9.208;2022-09-29T15:39:04;3.33;;;2.00;;
18090;SDS011;9172;49.948;9.208;2022-09-29T15:41:34;2.97;;;2.23;;
18090;SDS011;9172;49.948;9.208;2022-09-29T15:44:07;1.23;;;0.90;;
18090;SDS011;9172;49.948;9.208;2022-09-29T15:46:39;2.53;;;1.03;;
18090;SDS011;9172;49.948;9.208;2022-09-29T15:49:12;4.20;;;1.50;;
18090;SDS011;9172;49.948;9.208;2022-09-29T15:51:44;2.40;;;1.27;;
18090;SDS011;9172;49.948;9.208;2022-09-29T15:54:19;4.60;;;2.50;;
18090;SDS011;9172;49.948;9.208;2022-09-29T15:56:48;9.93;;;5.50;;
18090;SDS011;9172;49.948;9.208;2022-09-29T15:59:38;5.53;;;4.23;;
18090;SDS011;9172;49.948;9.208;2022-09-29T16:02:23;3.70;;;2.87;;
18090;SDS011;9172;49.948;9.208;2022-09-29T16:04:55;2.50;;;1.40;;
18090;SDS011;9172;49.948;9.208;2022-09-29T16:07:27;4.93;;;1.13;;
18090;SDS011;9172;49.948;9.208;2022-09-29T16:10:01;3.13;;;1.70;;
18090;SDS011;9172;49.948;9.208;2022-09-29T16:12:35;1.83;;;1.00;;
18090;SDS011;9172;49.948;9.208;2022-09-29T16:15:09;1.30;;;0.93;;